Last 24 Hours

UH Manoa Atmospheric Sciences

15 Minute Data | Pacific/Honolulu
as of 7/12/24 12:04 AM HST
Station Date Time Temp (°F) RH (%) Dew Pt (°F) Wind Spd (mph) Wind Dir (°) Wind Gust (mph) Latest Rain (In) Solar Rad (W/m2) Heat Index (°F) Barometric Press (inHg) Daily Rain (In) Daily Min Temp (°F) Daily Max Temp (°F) Daily Max Wind (mph)
UH Manoa Atmospheric Sciences 7/12/24 0000 78.4 76 70.4 8.9 ENE | 68 19.8 0.00 0 78.4 30.08 0.02 77.1 82.7 34.1
UH Manoa Atmospheric Sciences 7/11/24 2345 78.1 78 70.5 8.8 ENE | 65 20.0 0.00 0 78.1 30.08 0.02 77.1 82.7 34.1
UH Manoa Atmospheric Sciences 7/11/24 2330 78.0 78 70.7 10.2 ENE | 63 20.3 0.00 0 78.0 30.08 0.02 77.1 82.7 34.1
UH Manoa Atmospheric Sciences 7/11/24 2315 78.5 77 70.8 12.7 ENE | 58 27.0 0.00 0 78.5 30.08 0.02 77.1 82.7 34.1
UH Manoa Atmospheric Sciences 7/11/24 2300 78.5 76 70.3 10.7 NE | 56 23.8 0.00 0 78.5 30.08 0.02 77.1 82.7 34.1
UH Manoa Atmospheric Sciences 7/11/24 2245 78.5 76 70.3 8.6 ENE | 68 17.6 0.00 0 78.5 30.08 0.02 77.1 82.7 34.1
UH Manoa Atmospheric Sciences 7/11/24 2230 78.5 76 70.3 8.9 ENE | 65 23.5 0.00 0 78.5 30.07 0.02 77.1 82.7 34.1
UH Manoa Atmospheric Sciences 7/11/24 2215 78.5 76 70.3 8.0 ENE | 62 17.7 0.00 0 78.5 30.07 0.02 77.1 82.7 34.1
UH Manoa Atmospheric Sciences 7/11/24 2200 78.7 76 70.4 8.7 ENE | 66 18.3 0.00 0 78.7 30.07 0.02 77.1 82.7 34.1
UH Manoa Atmospheric Sciences 7/11/24 2145 78.9 75 70.5 8.4 ENE | 66 18.3 0.00 0 78.9 30.06 0.02 77.1 82.7 34.1
UH Manoa Atmospheric Sciences 7/11/24 2130 78.8 76 70.8 10.2 ENE | 64 22.0 0.00 0 78.8 30.06 0.02 77.1 82.7 34.1
UH Manoa Atmospheric Sciences 7/11/24 2115 78.7 77 70.9 9.2 ENE | 64 23.1 0.00 0 78.7 30.06 0.02 77.1 82.7 34.1
UH Manoa Atmospheric Sciences 7/11/24 2100 78.5 78 71.1 8.8 ENE | 73 21.8 0.00 0 78.5 30.06 0.02 77.1 82.7 34.1
UH Manoa Atmospheric Sciences 7/11/24 2045 78.2 79 71.2 7.6 ENE | 61 16.9 0.00 0 78.2 30.05 0.02 77.1 82.7 34.1
UH Manoa Atmospheric Sciences 7/11/24 2030 78.0 80 71.4 8.5 ENE | 60 17.8 0.00 0 78.0 30.05 0.02 77.1 82.7 34.1
UH Manoa Atmospheric Sciences 7/11/24 2015 77.8 81 71.5 9.1 ENE | 58 18.7 0.00 0 77.8 30.04 0.02 77.1 82.7 34.1
UH Manoa Atmospheric Sciences 7/11/24 2000 77.6 83 71.9 6.2 ENE | 62 14.0 0.00 0 77.6 30.04 0.02 77.1 82.7 34.1
UH Manoa Atmospheric Sciences 7/11/24 1945 77.6 83 72.0 7.1 ENE | 75 16.0 0.00 0 77.6 30.04 0.02 77.1 82.7 34.1
UH Manoa Atmospheric Sciences 7/11/24 1930 78.4 80 72.0 9.3 ENE | 65 20.9 0.00 0 78.4 30.03 0.02 77.1 82.7 34.1
UH Manoa Atmospheric Sciences 7/11/24 1915 78.7 79 71.6 7.3 ENE | 72 16.2 0.00 5 78.7 30.02 0.02 77.1 82.7 34.1
UH Manoa Atmospheric Sciences 7/11/24 1900 78.6 79 71.7 10.1 ENE | 63 20.6 0.00 20 78.6 30.01 0.02 77.1 82.7 34.1
UH Manoa Atmospheric Sciences 7/11/24 1845 78.5 81 72.1 7.6 ENE | 63 19.6 0.00 85 78.5 30.01 0.02 77.1 82.7 34.1
UH Manoa Atmospheric Sciences 7/11/24 1830 78.3 82 72.3 11.1 ENE | 61 25.7 0.00 57 78.3 30.00 0.02 77.1 82.7 34.1
UH Manoa Atmospheric Sciences 7/11/24 1815 78.3 82 72.6 10.3 NE | 56 23.2 0.00 57 78.3 30.00 0.02 77.1 82.7 34.1
UH Manoa Atmospheric Sciences 7/11/24 1800 78.1 82 72.3 10.5 NE | 49 26.4 0.00 88 78.1 30.00 0.02 77.1 82.7 34.1
UH Manoa Atmospheric Sciences 7/11/24 1745 77.7 84 72.4 5.8 ENE | 59 16.0 0.00 110 77.7 30.00 0.02 77.1 82.7 34.1
UH Manoa Atmospheric Sciences 7/11/24 1730 77.4 84 72.3 6.6 NE | 49 18.0 0.00 120 77.4 30.00 0.02 77.1 82.7 34.1
UH Manoa Atmospheric Sciences 7/11/24 1715 77.6 84 72.5 8.3 NE | 53 17.7 0.00 152 77.6 30.00 0.02 77.1 82.7 34.1
UH Manoa Atmospheric Sciences 7/11/24 1700 78.1 83 72.6 9.1 ENE | 66 20.7 0.01 157 78.1 30.00 0.02 77.5 82.7 34.1
UH Manoa Atmospheric Sciences 7/11/24 1645 78.3 82 72.4 10.4 ENE | 61 24.7 0.00 179 78.3 29.99 0.01 77.5 82.7 34.1
UH Manoa Atmospheric Sciences 7/11/24 1630 78.6 82 72.5 8.5 ENE | 59 18.2 0.01 141 78.6 29.99 0.01 77.5 82.7 34.1
UH Manoa Atmospheric Sciences 7/11/24 1615 79.1 79 72.2 9.3 NE | 55 20.7 0.00 317 79.1 29.99 0.00 77.5 82.7 34.1
UH Manoa Atmospheric Sciences 7/11/24 1600 78.9 79 71.9 10.1 NE | 48 22.4 0.00 374 78.9 29.99 0.00 77.5 82.7 34.1
UH Manoa Atmospheric Sciences 7/11/24 1545 79.4 78 71.9 11.8 NE | 48 25.1 0.00 296 80.7 30.00 0.00 77.5 82.7 34.1
UH Manoa Atmospheric Sciences 7/11/24 1530 80.9 73 71.4 7.8 NE | 55 22.2 0.00 252 84.8 30.00 0.00 77.5 82.7 34.1
UH Manoa Atmospheric Sciences 7/11/24 1515 81.0 71 70.7 14.5 NE | 41 28.8 0.00 522 84.8 30.00 0.00 77.5 82.7 34.1
UH Manoa Atmospheric Sciences 7/11/24 1500 81.6 70 70.8 13.2 NE | 43 29.3 0.00 710 85.6 30.00 0.00 77.5 82.7 34.1
UH Manoa Atmospheric Sciences 7/11/24 1445 81.4 71 70.9 15.1 NE | 47 26.6 0.00 936 85.4 30.00 0.00 77.5 82.7 34.1
UH Manoa Atmospheric Sciences 7/11/24 1430 81.6 70 70.7 17.1 NE | 41 34.1 0.00 928 85.6 30.00 0.00 77.5 82.7 34.1
UH Manoa Atmospheric Sciences 7/11/24 1415 81.4 70 70.8 15.5 NE | 46 31.3 0.00 734 85.3 30.00 0.00 77.5 82.7 33.6
UH Manoa Atmospheric Sciences 7/11/24 1400 81.4 72 71.4 10.4 NE | 45 24.8 0.00 677 85.7 30.01 0.00 77.5 82.7 33.6
UH Manoa Atmospheric Sciences 7/11/24 1345 81.9 69 71.0 9.9 NE | 55 23.6 0.00 870 86.2 30.01 0.00 77.5 82.7 33.6
UH Manoa Atmospheric Sciences 7/11/24 1330 81.0 70 70.5 13.2 NE | 39 28.5 0.00 740 84.7 30.02 0.00 77.5 82.6 33.6
UH Manoa Atmospheric Sciences 7/11/24 1315 80.6 71 70.2 12.7 NE | 42 27.0 0.00 575 84.0 30.02 0.00 77.5 82.6 33.6
UH Manoa Atmospheric Sciences 7/11/24 1300 79.6 73 70.3 10.9 NE | 45 24.3 0.00 407 79.9 30.03 0.00 77.5 82.6 33.6
UH Manoa Atmospheric Sciences 7/11/24 1245 78.5 77 70.9 6.5 NE | 44 16.0 0.00 436 78.5 30.04 0.00 77.5 82.6 33.6
UH Manoa Atmospheric Sciences 7/11/24 1230 79.7 75 71.3 11.4 NE | 48 24.5 0.00 671 80.7 30.03 0.00 77.5 82.6 33.6
UH Manoa Atmospheric Sciences 7/11/24 1215 79.5 74 70.6 11.9 NE | 40 22.4 0.00 926 80.3 30.03 0.00 77.5 82.6 33.6
UH Manoa Atmospheric Sciences 7/11/24 1200 80.6 73 71.2 13.3 NE | 44 28.2 0.00 819 83.0 30.04 0.00 77.5 82.6 33.6
UH Manoa Atmospheric Sciences 7/11/24 1145 82.0 68 70.2 10.9 NE | 49 23.8 0.00 985 85.9 30.03 0.00 77.5 82.6 33.6
UH Manoa Atmospheric Sciences 7/11/24 1130 80.6 71 70.3 11.6 NE | 42 23.2 0.00 895 84.1 30.04 0.00 77.5 81.7 33.6
UH Manoa Atmospheric Sciences 7/11/24 1115 80.8 70 69.9 11.5 NE | 42 26.0 0.00 421 84.2 30.04 0.00 77.5 81.7 33.6
UH Manoa Atmospheric Sciences 7/11/24 1100 81.0 69 70.0 13.3 NE | 45 23.0 0.00 666 84.5 30.04 0.00 77.5 81.7 33.6
UH Manoa Atmospheric Sciences 7/11/24 1045 81.1 68 69.7 14.2 NE | 41 23.2 0.00 735 84.5 30.04 0.00 77.5 81.7 33.6
UH Manoa Atmospheric Sciences 7/11/24 1030 80.8 68 69.4 15.8 NE | 43 30.9 0.00 735 83.9 30.04 0.00 77.5 81.6 33.6
UH Manoa Atmospheric Sciences 7/11/24 1015 80.1 71 69.8 16.6 NE | 40 27.3 0.00 498 82.5 30.04 0.00 77.5 81.3 33.6
UH Manoa Atmospheric Sciences 7/11/24 1000 80.5 69 69.6 15.8 NE | 41 27.5 0.00 519 83.5 30.04 0.00 77.5 81.3 33.6
UH Manoa Atmospheric Sciences 7/11/24 0945 80.5 69 69.2 15.9 NE | 42 28.2 0.00 677 83.5 30.04 0.00 77.5 81.3 33.6
UH Manoa Atmospheric Sciences 7/11/24 0930 79.8 70 69.1 15.9 NE | 41 25.6 0.00 413 80.4 30.04 0.00 77.5 80.3 33.6
UH Manoa Atmospheric Sciences 7/11/24 0915 79.2 74 70.1 11.5 NE | 51 24.0 0.00 354 79.2 30.05 0.00 77.5 80.0 33.6
UH Manoa Atmospheric Sciences 7/11/24 0900 79.1 73 69.6 11.5 NE | 51 20.9 0.00 366 79.1 30.04 0.00 77.5 80.0 33.6
UH Manoa Atmospheric Sciences 7/11/24 0845 78.7 74 69.6 13.1 NE | 45 27.7 0.00 247 78.7 30.05 0.00 77.5 79.6 33.6
UH Manoa Atmospheric Sciences 7/11/24 0830 79.2 72 69.3 9.6 NE | 52 18.2 0.00 181 79.2 30.05 0.00 77.5 79.6 33.6
UH Manoa Atmospheric Sciences 7/11/24 0815 78.9 73 69.4 10.9 NE | 45 20.9 0.00 154 78.9 30.04 0.00 77.5 79.5 33.6
UH Manoa Atmospheric Sciences 7/11/24 0800 79.1 71 69.0 10.5 NE | 45 23.6 0.00 129 79.1 30.04 0.00 77.5 79.4 33.6
UH Manoa Atmospheric Sciences 7/11/24 0745 79.0 71 68.8 10.6 NE | 50 21.5 0.00 112 79.0 30.04 0.00 77.5 79.4 33.6
UH Manoa Atmospheric Sciences 7/11/24 0730 78.8 71 68.7 11.0 NE | 49 17.9 0.00 79 78.8 30.03 0.00 77.5 79.1 33.6
UH Manoa Atmospheric Sciences 7/11/24 0715 78.9 71 68.8 9.5 ENE | 58 23.3 0.00 75 78.9 30.03 0.00 77.5 79.1 33.6
UH Manoa Atmospheric Sciences 7/11/24 0700 78.8 73 69.3 8.9 NE | 54 20.4 0.00 67 78.8 30.03 0.00 77.5 79.1 33.6
UH Manoa Atmospheric Sciences 7/11/24 0645 78.7 73 69.2 9.2 ENE | 59 17.1 0.00 41 78.7 30.02 0.00 77.5 79.1 33.6
UH Manoa Atmospheric Sciences 7/11/24 0630 78.6 73 69.3 11.4 ENE | 67 33.6 0.00 23 78.6 30.01 0.00 77.5 79.1 33.6
UH Manoa Atmospheric Sciences 7/11/24 0615 78.4 74 69.4 7.6 ENE | 60 14.9 0.00 6 78.4 30.01 0.00 77.5 79.1 33.2
UH Manoa Atmospheric Sciences 7/11/24 0600 78.1 74 69.3 9.1 ENE | 57 22.1 0.00 1 78.1 30.00 0.00 77.5 79.1 33.2
UH Manoa Atmospheric Sciences 7/11/24 0545 78.2 75 69.6 12.7 NE | 56 25.1 0.00 0 78.2 30.00 0.00 77.5 79.1 33.2
UH Manoa Atmospheric Sciences 7/11/24 0530 78.1 76 69.8 10.3 NE | 55 27.0 0.00 0 78.1 29.99 0.00 77.5 79.1 33.2
UH Manoa Atmospheric Sciences 7/11/24 0515 77.9 76 69.8 12.9 NE | 51 33.2 0.00 0 77.9 29.99 0.00 77.5 79.1 33.2
UH Manoa Atmospheric Sciences 7/11/24 0500 77.8 77 70.0 9.4 ENE | 69 23.0 0.00 0 77.8 29.99 0.00 77.5 79.1 31.8
UH Manoa Atmospheric Sciences 7/11/24 0445 78.6 75 70.0 11.6 NE | 54 28.7 0.00 0 78.6 29.98 0.00 77.9 79.1 31.8
UH Manoa Atmospheric Sciences 7/11/24 0430 78.6 74 69.7 11.8 NE | 55 26.8 0.00 0 78.6 29.98 0.00 78.1 79.1 31.8
UH Manoa Atmospheric Sciences 7/11/24 0415 78.6 73 69.4 9.1 ENE | 60 21.2 0.00 0 78.6 29.98 0.00 78.1 79.1 31.8
UH Manoa Atmospheric Sciences 7/11/24 0400 78.6 73 69.2 10.8 ENE | 59 23.6 0.00 0 78.6 29.99 0.00 78.1 79.1 31.8
UH Manoa Atmospheric Sciences 7/11/24 0345 78.6 73 69.0 10.8 ENE | 64 26.4 0.00 0 78.6 29.99 0.00 78.1 79.1 31.8
UH Manoa Atmospheric Sciences 7/11/24 0330 78.6 72 68.9 11.0 ENE | 60 22.0 0.00 0 78.6 29.99 0.00 78.1 79.1 31.8
UH Manoa Atmospheric Sciences 7/11/24 0315 78.6 73 69.1 9.8 ENE | 64 19.8 0.00 0 78.6 29.99 0.00 78.1 79.1 31.8
UH Manoa Atmospheric Sciences 7/11/24 0300 78.5 73 69.2 10.0 ENE | 61 21.2 0.00 0 78.5 30.00 0.00 78.1 79.1 31.8
UH Manoa Atmospheric Sciences 7/11/24 0245 78.4 73 69.2 8.9 ENE | 60 18.1 0.00 0 78.4 30.00 0.00 78.1 79.1 31.8
UH Manoa Atmospheric Sciences 7/11/24 0230 78.5 73 69.0 7.9 ENE | 65 19.3 0.00 0 78.5 30.00 0.00 78.3 79.1 31.8
UH Manoa Atmospheric Sciences 7/11/24 0215 78.8 74 69.6 10.2 ENE | 63 21.9 0.00 0 78.8 30.00 0.00 78.4 79.1 31.8
UH Manoa Atmospheric Sciences 7/11/24 0200 78.8 73 69.4 9.8 ENE | 64 20.6 0.00 0 78.8 30.00 0.00 78.4 79.0 31.8
UH Manoa Atmospheric Sciences 7/11/24 0145 78.7 73 69.3 10.2 ENE | 61 22.7 0.00 0 78.7 30.01 0.00 78.4 79.0 31.8
UH Manoa Atmospheric Sciences 7/11/24 0130 78.6 74 69.5 11.0 ENE | 68 23.4 0.00 0 78.6 30.01 0.00 78.4 79.0 31.8
UH Manoa Atmospheric Sciences 7/11/24 0115 78.7 74 69.6 11.6 ENE | 61 30.0 0.00 0 78.7 30.01 0.00 78.4 79.0 31.8
UH Manoa Atmospheric Sciences 7/11/24 0100 78.8 73 69.3 10.4 ENE | 66 20.6 0.00 0 78.8 30.02 0.00 78.4 79.0 31.8
UH Manoa Atmospheric Sciences 7/11/24 0045 78.5 74 69.4 10.4 NE | 51 20.7 0.00 0 78.5 30.03 0.00 78.4 79.0 31.8
UH Manoa Atmospheric Sciences 7/11/24 0030 78.5 76 70.4 11.6 ENE | 61 23.0 0.00 0 78.5 30.03 0.00 78.4 79.0 31.8
UH Manoa Atmospheric Sciences 7/11/24 0015 78.6 76 70.5 13.6 NE | 54 31.8 0.00 0 78.6 30.03 0.00 78.4 79.0 31.8
UH Manoa Atmospheric Sciences 7/11/24 0000 78.9 74 70.0 13.7 NE | 48 30.4 0.00 0 78.9 30.04 0.01 74.8 83.4 32.9
Max     82.0 84 72.6 17.1 - 34.1 0.01 985 86.2 30.08 0.02 78.4 83.4 34.1
Avg     79.1 75 70.4 10.7 - 23.0 0.00 214 79.8 30.02 - - - -
Min     77.4 68 68.7 5.8 - 14.0 0.00 0 77.4 29.98 0.00 74.8 79.0 31.8